• Join FlightAware (Why Join?)
  • Login
  • US Flag 
01:16AM EST


 

Airport Tracker/Info


-or-


 

Live Flight TrackerFlight Track Log ✈ N207AH ✈ 25-Feb-2014 ✈ KFWA - KRBW

Flight Track Log - Related Links

Times and Time Zones

All times are in EST time to prevent confusion due to time zone crossing. See the N207AH flight status page for this flight to view local times or setup timezone preferences in your user account.

Time Position Orientation Groundspeed Altitude Reporting Facility
EST Latitude Longitude Course Direction KTS MPH feet Rate Location/Type
01:59PM 40.9044 -85.2342 153° Southeast 247 284 4,500  Level Chicago Center
02:00PM 40.8297 -85.1919 157° South 287 330 8,800 3,720 Climbing Chicago Center
02:01PM 40.7483 -85.1397 154° Southeast 312 359 12,300 3,180 Climbing Chicago Center
02:02PM 40.6608 -85.0814 153° Southeast 341 392 15,400 2,880 Climbing Chicago Center
02:03PM 40.5631 -85.0339 160° South 355 409 18,300 2,340 Climbing Chicago Center
02:04PM 40.4656 -84.9956 163° South 363 418 20,300 1,980 Climbing Chicago Center
02:05PM 40.4266 -84.8464 153° Southeast  Level Estimated
02:05PM 40.3358 -84.9417 162° South 400 460 22,400  Level Chicago Center
02:06PM 40.2258 -84.8894 160° South 416 479 24,400 1,860 Climbing Chicago Center
02:07PM 40.1156 -84.8383 160° South 420 483 26,300 1,740 Climbing Chicago Center
02:08PM 40.0053 -84.7872 160° South 421 484 28,100 1,500 Climbing Chicago Center
02:09PM 39.8933 -84.7331 160° South 426 490 29,400 1,080 Climbing Chicago Center
02:11PM 39.7781 -84.6797 160° South 435 501 30,400 960 Climbing Chicago Center
02:12PM 39.6611 -84.6269 161° South 443 510 31,400 1,020 Climbing Chicago Center
02:13PM 39.4728 -84.5358 160° South 452 520 33,000 1,080 Climbing Indianapolis Center
02:14PM 39.3556 -84.4583 153° Southeast 468 539 34,100 960 Climbing Indianapolis Center
02:15PM 39.2406 -84.3836 153° Southeast 468 539 35,100 900 Climbing Indianapolis Center
02:16PM 39.1275 -84.3114 154° Southeast 459 528 36,000 960 Climbing Indianapolis Center
02:17PM 39.0144 -84.2383 153° Southeast 457 526 37,100 1,080 Climbing Indianapolis Center
02:18PM 38.8814 -84.1542 154° Southeast 451 519 38,300 1,020 Climbing Indianapolis Center
02:19PM 38.7744 -84.0864 154° Southeast 437 503 39,300 900 Climbing Indianapolis Center
02:20PM 38.6706 -84.0206 154° Southeast 423 487 40,200 660 Climbing Indianapolis Center
02:21PM 38.5586 -83.9478 153° Southeast 416 479 40,700 360 Climbing Indianapolis Center
02:22PM 38.4553 -83.8842 154° Southeast 415 478 41,000 120 Climbing Indianapolis Center
02:23PM 38.3517 -83.8164 153° Southeast 414 476 41,000  Level Indianapolis Center
02:24PM 38.2436 -83.7489 154° Southeast 424 488 41,000  Level Indianapolis Center
02:25PM 38.1342 -83.6817 154° Southeast 432 497 41,000  Level Indianapolis Center
02:26PM 38.0222 -83.6103 153° Southeast 444 511 41,000  Level Indianapolis Center
02:27PM 37.8906 -83.5283 154° Southeast 448 516 41,000  Level Indianapolis Center
02:28PM 37.7772 -83.4550 153° Southeast 452 520 41,000  Level Indianapolis Center
02:29PM 37.6606 -83.3833 154° Southeast 459 528 41,000  Level Indianapolis Center
02:31PM 37.5433 -83.3103 154° Southeast 464 534 41,000  Level Indianapolis Center
02:32PM 37.4256 -83.2383 154° Southeast 467 537 41,000  Level Indianapolis Center
02:33PM 37.3072 -83.1656 154° Southeast 468 539 41,000  Level Indianapolis Center
02:34PM 37.1689 -83.0814 154° Southeast 469 540 41,000  Level Indianapolis Center
02:35PM 37.0508 -83.0089 154° Southeast 470 541 41,000  Level Indianapolis Center
02:36PM 36.9458 -82.9456 154° Southeast 470 541 41,000  Level Indianapolis Center
02:37PM 36.8039 -82.8586 154° Southeast 470 541 41,000  Level Indianapolis Center
02:38PM 36.6875 -82.7900 155° Southeast 470 541 41,000  Level Indianapolis Center
02:39PM 36.5706 -82.7200 154° Southeast 469 540 41,000  Level Indianapolis Center
02:40PM 36.4539 -82.6494 154° Southeast 469 540 41,000  Level Indianapolis Center
02:41PM 36.3364 -82.5803 155° Southeast 468 539 41,000  Level Indianapolis Center
02:42PM 36.2014 -82.4992 154° Southeast 467 537 41,000  Level Indianapolis Center
02:43PM 36.0842 -82.4300 155° Southeast 466 536 41,000  Level Indianapolis Center
02:44PM 35.9672 -82.3611 155° Southeast 466 536 41,000 -300 Level Indianapolis Center
02:45PM 35.8308 -82.2817 155° Southeast 465 535 40,400 -720 Descending Atlanta Center
02:46PM 35.7111 -82.2178 157° South 474 545 39,500 -960 Descending Atlanta Center
02:47PM 35.5847 -82.1414 154° Southeast 481 554 38,500 -1,020 Descending Atlanta Center
02:48PM 35.4606 -82.0703 155° Southeast 492 566 37,500 -1,080 Descending Atlanta Center
02:49PM 35.3342 -81.9969 155° Southeast 492 566 36,400 -1,260 Descending Atlanta Center
02:50PM 35.1928 -81.9167 155° Southeast 500 575 35,000 -1,200 Descending Atlanta Center
02:51PM 35.0664 -81.8436 155° Southeast 506 582 34,000 -540 Descending Atlanta Center
02:52PM 34.9400 -81.7686 154° Southeast 500 575 34,000  Level Atlanta Center
02:53PM 34.8156 -81.7011 156° South 500 575 34,000 -1,080 Level Atlanta Center
02:56PM 34.5217 -81.5317 155° Southeast 490 564 30,400 -1,860 Descending Jacksonville Center
02:57PM 34.3958 -81.4608 155° Southeast 490 564 27,700 -2,520 Descending Jacksonville Center
02:58PM 34.2697 -81.3875 154° Southeast 490 564 25,400 -1,860 Descending Jacksonville Center
02:59PM 34.1500 -81.3192 155° Southeast 490 564 24,000 -1,140 Descending Jacksonville Center
03:00PM 34.0303 -81.2511 155° Southeast 482 555 23,200 -1,440 Descending Jacksonville Center
03:01PM 33.9147 -81.1858 155° Southeast 477 549 21,200 -2,040 Descending Jacksonville Center
03:02PM 33.8011 -81.1231 155° Southeast 459 528 19,200 -2,160 Descending Jacksonville Center
03:03PM 33.6811 -81.0581 156° South 442 509 16,900 -2,220 Descending Jacksonville Center
03:04PM 33.5761 -81.0031 156° South 431 496 14,900 -2,040 Descending Jacksonville Center
03:05PM 33.4728 -80.9453 155° Southeast 419 482 12,900 -1,980 Descending Jacksonville Center
03:06PM 33.3719 -80.8903 156° South 414 476 11,000 -960 Descending Jacksonville Center
03:07PM 33.2750 -80.8378 156° South 397 457 11,000 -120 Level Jacksonville Center
03:08PM 33.1761 -80.7831 155° Southeast 397 457 10,800 -1,560 Descending Jacksonville Center
03:09PM 33.0894 -80.7306 153° Southeast 378 435 7,900 -3,180 Descending Jacksonville Center
03:10PM 33.0278 -80.6603 136° Southeast 330 380 4,600 -2,580 Descending Jacksonville Center
03:11PM 32.9744 -80.5947 134° Southeast 307 353 2,700 2,160 Descending Jacksonville Center
03:12PM 32.9106 -80.5294 139° Southeast 307 353 9,000 3,120 Climbing Jacksonville Center
03:13PM 32.8467 -80.4619 138° Southeast 307 353 9,000  Level Jacksonville Center
03:14PM 32.7828 -80.3969 139° Southeast 307 353 9,000  Level Jacksonville Center
03:15PM 32.7444 -80.3561 138° Southeast 307 353 9,000  Level Jacksonville Center
03:18PM 32.8833 -80.5794 307° West  Level FlightAware Approximate
03:25PM 32.9167 -80.6333 308° West  Level FlightAware Approximate
03:26PM 32.9210 -80.6406 308° West  Level Estimated
03:27PM 32.9210 -80.6406 308° West  Level Estimated
03:28PM 32.9210 -80.6406 308° West  Level Estimated
03:29PM 32.9210 -80.6406 308° West  Level Estimated
03:30PM 32.9210 -80.6406 308° West  Level Estimated
03:31PM 32.9210 -80.6406 308° West  Level Estimated